sensor_id;sensor_type;location;lat;lon;timestamp;pressure;altitude;pressure_sealevel;temperature;humidity
40612;BME280;26317;44.894;20.286;2022-07-29T00:00:10;100632.59;;;25.03;55.06
40612;BME280;26317;44.894;20.286;2022-07-29T00:02:39;100632.16;;;25.01;55.32
40612;BME280;26317;44.894;20.286;2022-07-29T00:05:09;100625.41;;;24.95;55.67
40612;BME280;26317;44.894;20.286;2022-07-29T00:07:39;100632.88;;;24.98;55.64
40612;BME280;26317;44.894;20.286;2022-07-29T00:10:08;100635.16;;;24.92;55.72
40612;BME280;26317;44.894;20.286;2022-07-29T00:12:37;100625.53;;;24.83;55.46
40612;BME280;26317;44.894;20.286;2022-07-29T00:15:09;100640.16;;;24.87;55.78
40612;BME280;26317;44.894;20.286;2022-07-29T00:17:38;100632.13;;;24.78;55.51
40612;BME280;26317;44.894;20.286;2022-07-29T00:20:08;100642.09;;;24.86;55.66
40612;BME280;26317;44.894;20.286;2022-07-29T00:22:37;100622.28;;;24.77;56.01
40612;BME280;26317;44.894;20.286;2022-07-29T00:25:07;100633.31;;;24.81;56.35
40612;BME280;26317;44.894;20.286;2022-07-29T00:27:36;100627.72;;;24.73;56.48
40612;BME280;26317;44.894;20.286;2022-07-29T00:30:09;100625.72;;;24.70;56.92
40612;BME280;26317;44.894;20.286;2022-07-29T00:32:38;100616.63;;;24.66;56.58
40612;BME280;26317;44.894;20.286;2022-07-29T00:35:08;100587.69;;;24.50;56.49
40612;BME280;26317;44.894;20.286;2022-07-29T00:37:49;100605.44;;;24.56;56.73
40612;BME280;26317;44.894;20.286;2022-07-29T00:40:18;100610.22;;;24.59;56.37
40612;BME280;26317;44.894;20.286;2022-07-29T00:42:49;100615.31;;;24.60;56.60
40612;BME280;26317;44.894;20.286;2022-07-29T00:45:21;100595.06;;;24.46;56.83
40612;BME280;26317;44.894;20.286;2022-07-29T00:47:50;100619.06;;;24.52;57.42
40612;BME280;26317;44.894;20.286;2022-07-29T00:50:19;100611.13;;;24.47;57.65
40612;BME280;26317;44.894;20.286;2022-07-29T00:52:48;100601.25;;;24.43;57.72
40612;BME280;26317;44.894;20.286;2022-07-29T00:55:18;100605.22;;;24.45;58.58
40612;BME280;26317;44.894;20.286;2022-07-29T00:57:47;100602.84;;;24.44;59.57
40612;BME280;26317;44.894;20.286;2022-07-29T01:00:18;100616.19;;;24.45;60.10
40612;BME280;26317;44.894;20.286;2022-07-29T01:02:50;100607.47;;;24.40;60.05
40612;BME280;26317;44.894;20.286;2022-07-29T01:05:22;100601.63;;;24.41;60.57
40612;BME280;26317;44.894;20.286;2022-07-29T01:07:54;100596.50;;;24.40;60.75
40612;BME280;26317;44.894;20.286;2022-07-29T01:10:24;100599.53;;;24.35;61.27
40612;BME280;26317;44.894;20.286;2022-07-29T01:12:55;100594.78;;;24.32;61.04
40612;BME280;26317;44.894;20.286;2022-07-29T01:15:25;100598.72;;;24.34;60.45
40612;BME280;26317;44.894;20.286;2022-07-29T01:18:03;100585.81;;;24.35;60.54
40612;BME280;26317;44.894;20.286;2022-07-29T01:20:49;100584.16;;;24.30;61.41
40612;BME280;26317;44.894;20.286;2022-07-29T01:23:44;100593.19;;;24.31;62.10
40612;BME280;26317;44.894;20.286;2022-07-29T01:26:28;100582.16;;;24.27;62.23
40612;BME280;26317;44.894;20.286;2022-07-29T01:29:16;100555.88;;;24.07;62.19
40612;BME280;26317;44.894;20.286;2022-07-29T01:31:51;100586.03;;;24.26;62.68
40612;BME280;26317;44.894;20.286;2022-07-29T01:34:26;100562.16;;;24.07;62.81
40612;BME280;26317;44.894;20.286;2022-07-29T01:37:03;100582.75;;;24.17;63.43
40612;BME280;26317;44.894;20.286;2022-07-29T01:39:34;100583.16;;;24.19;64.09
40612;BME280;26317;44.894;20.286;2022-07-29T01:42:11;100584.59;;;24.13;64.07
40612;BME280;26317;44.894;20.286;2022-07-29T01:44:50;100565.09;;;23.99;64.59
40612;BME280;26317;44.894;20.286;2022-07-29T01:47:25;100580.59;;;24.10;63.82
40612;BME280;26317;44.894;20.286;2022-07-29T01:49:56;100574.31;;;24.10;64.22
40612;BME280;26317;44.894;20.286;2022-07-29T01:52:31;100555.66;;;23.96;65.33
40612;BME280;26317;44.894;20.286;2022-07-29T01:55:04;100577.00;;;24.06;65.36
40612;BME280;26317;44.894;20.286;2022-07-29T01:57:36;100565.81;;;23.96;64.54
40612;BME280;26317;44.894;20.286;2022-07-29T02:00:11;100571.31;;;23.96;63.79
40612;BME280;26317;44.894;20.286;2022-07-29T02:06:35;100560.03;;;23.81;64.39
40612;BME280;26317;44.894;20.286;2022-07-29T02:09:07;100553.69;;;23.77;65.23
40612;BME280;26317;44.894;20.286;2022-07-29T02:11:38;100556.28;;;23.70;65.65
40612;BME280;26317;44.894;20.286;2022-07-29T02:14:10;100565.56;;;23.66;65.58
40612;BME280;26317;44.894;20.286;2022-07-29T02:16:45;100566.63;;;23.61;65.05
40612;BME280;26317;44.894;20.286;2022-07-29T02:19:17;100552.53;;;23.44;64.73
40612;BME280;26317;44.894;20.286;2022-07-29T02:21:47;100581.25;;;23.50;64.37
40612;BME280;26317;44.894;20.286;2022-07-29T02:24:17;100570.00;;;23.39;64.42
40612;BME280;26317;44.894;20.286;2022-07-29T02:26:47;100557.06;;;23.20;64.01
40612;BME280;26317;44.894;20.286;2022-07-29T02:29:20;100577.19;;;23.28;64.10
40612;BME280;26317;44.894;20.286;2022-07-29T02:31:53;100583.78;;;23.27;63.96
40612;BME280;26317;44.894;20.286;2022-07-29T02:34:23;100586.00;;;23.21;64.11
40612;BME280;26317;44.894;20.286;2022-07-29T02:36:54;100582.03;;;23.19;64.07
40612;BME280;26317;44.894;20.286;2022-07-29T02:39:25;100579.66;;;23.17;63.82
40612;BME280;26317;44.894;20.286;2022-07-29T02:42:01;100583.56;;;23.16;63.94
40612;BME280;26317;44.894;20.286;2022-07-29T02:44:32;100549.38;;;22.95;64.45
40612;BME280;26317;44.894;20.286;2022-07-29T02:47:11;100577.09;;;23.09;63.95
40612;BME280;26317;44.894;20.286;2022-07-29T02:49:47;100577.97;;;23.13;64.35
40612;BME280;26317;44.894;20.286;2022-07-29T02:52:21;100579.13;;;23.12;63.68
40612;BME280;26317;44.894;20.286;2022-07-29T02:54:55;100584.94;;;23.10;63.87
40612;BME280;26317;44.894;20.286;2022-07-29T02:57:31;100587.69;;;23.10;63.95
40612;BME280;26317;44.894;20.286;2022-07-29T03:00:05;100584.16;;;23.10;64.08
40612;BME280;26317;44.894;20.286;2022-07-29T03:02:39;100574.00;;;23.10;64.07
40612;BME280;26317;44.894;20.286;2022-07-29T03:05:11;100579.41;;;23.07;63.75
40612;BME280;26317;44.894;20.286;2022-07-29T03:07:43;100582.56;;;23.09;63.40
40612;BME280;26317;44.894;20.286;2022-07-29T03:10:14;100581.78;;;23.08;63.23
40612;BME280;26317;44.894;20.286;2022-07-29T03:12:43;100586.47;;;23.08;63.79
40612;BME280;26317;44.894;20.286;2022-07-29T03:15:13;100588.81;;;23.09;64.14
40612;BME280;26317;44.894;20.286;2022-07-29T03:17:45;100584.53;;;23.08;64.59
40612;BME280;26317;44.894;20.286;2022-07-29T03:20:14;100593.06;;;23.07;64.49
40612;BME280;26317;44.894;20.286;2022-07-29T03:22:44;100583.09;;;22.99;64.14
40612;BME280;26317;44.894;20.286;2022-07-29T03:25:15;100590.69;;;23.05;64.54
40612;BME280;26317;44.894;20.286;2022-07-29T03:27:45;100589.47;;;23.03;64.48
40612;BME280;26317;44.894;20.286;2022-07-29T03:30:15;100600.41;;;23.03;64.14
40612;BME280;26317;44.894;20.286;2022-07-29T03:32:46;100593.34;;;23.02;64.00
40612;BME280;26317;44.894;20.286;2022-07-29T03:35:15;100579.31;;;22.87;63.94
40612;BME280;26317;44.894;20.286;2022-07-29T03:37:45;100599.19;;;23.00;64.14
40612;BME280;26317;44.894;20.286;2022-07-29T03:40:16;100592.69;;;22.92;64.68
40612;BME280;26317;44.894;20.286;2022-07-29T03:42:47;100606.47;;;22.96;64.73
40612;BME280;26317;44.894;20.286;2022-07-29T03:45:19;100572.00;;;22.64;64.79
40612;BME280;26317;44.894;20.286;2022-07-29T03:47:55;100560.19;;;22.60;64.76
40612;BME280;26317;44.894;20.286;2022-07-29T03:50:25;100590.91;;;22.69;64.38
40612;BME280;26317;44.894;20.286;2022-07-29T03:52:55;100605.81;;;22.71;63.66
40612;BME280;26317;44.894;20.286;2022-07-29T03:55:24;100607.63;;;22.67;63.29
40612;BME280;26317;44.894;20.286;2022-07-29T03:57:56;100604.97;;;22.55;63.71
40612;BME280;26317;44.894;20.286;2022-07-29T04:00:26;100612.50;;;22.58;64.45
40612;BME280;26317;44.894;20.286;2022-07-29T04:02:58;100611.47;;;22.51;64.65
40612;BME280;26317;44.894;20.286;2022-07-29T04:05:27;100617.31;;;22.49;64.79
40612;BME280;26317;44.894;20.286;2022-07-29T04:07:56;100586.84;;;22.35;65.04
40612;BME280;26317;44.894;20.286;2022-07-29T04:10:25;100569.25;;;22.20;64.86
40612;BME280;26317;44.894;20.286;2022-07-29T04:12:54;100607.75;;;22.43;64.93
40612;BME280;26317;44.894;20.286;2022-07-29T04:15:23;100589.13;;;22.33;64.95
40612;BME280;26317;44.894;20.286;2022-07-29T04:17:54;100627.22;;;22.54;65.36
40612;BME280;26317;44.894;20.286;2022-07-29T04:20:25;100601.84;;;22.41;65.20
40612;BME280;26317;44.894;20.286;2022-07-29T04:22:54;100614.13;;;22.47;65.12
40612;BME280;26317;44.894;20.286;2022-07-29T04:25:23;100597.28;;;22.45;64.89
40612;BME280;26317;44.894;20.286;2022-07-29T04:27:52;100599.78;;;22.50;65.01
40612;BME280;26317;44.894;20.286;2022-07-29T04:30:30;100628.38;;;22.68;65.21
40612;BME280;26317;44.894;20.286;2022-07-29T04:33:00;100630.19;;;22.76;65.11
40612;BME280;26317;44.894;20.286;2022-07-29T04:35:34;100601.56;;;22.58;65.01
40612;BME280;26317;44.894;20.286;2022-07-29T04:38:04;100624.47;;;22.81;64.65
40612;BME280;26317;44.894;20.286;2022-07-29T04:40:34;100630.81;;;22.85;64.68
40612;BME280;26317;44.894;20.286;2022-07-29T04:43:03;100633.06;;;22.96;64.85
40612;BME280;26317;44.894;20.286;2022-07-29T04:45:32;100632.34;;;22.99;64.10
40612;BME280;26317;44.894;20.286;2022-07-29T04:48:01;100634.13;;;23.07;63.74
40612;BME280;26317;44.894;20.286;2022-07-29T04:50:33;100620.19;;;23.12;64.21
40612;BME280;26317;44.894;20.286;2022-07-29T04:53:01;100634.56;;;23.24;64.20
40612;BME280;26317;44.894;20.286;2022-07-29T04:55:30;100623.72;;;23.28;63.54
40612;BME280;26317;44.894;20.286;2022-07-29T04:57:59;100636.63;;;23.43;63.83
40612;BME280;26317;44.894;20.286;2022-07-29T05:00:28;100634.84;;;23.51;63.63
40612;BME280;26317;44.894;20.286;2022-07-29T05:02:57;100626.72;;;23.54;63.57
40612;BME280;26317;44.894;20.286;2022-07-29T05:05:26;100629.78;;;23.68;62.88
40612;BME280;26317;44.894;20.286;2022-07-29T05:07:58;100610.00;;;23.59;62.25
40612;BME280;26317;44.894;20.286;2022-07-29T05:10:27;100619.28;;;23.70;62.27
40612;BME280;26317;44.894;20.286;2022-07-29T05:12:56;100640.69;;;23.84;61.80
40612;BME280;26317;44.894;20.286;2022-07-29T05:15:25;100641.56;;;23.88;61.86
40612;BME280;26317;44.894;20.286;2022-07-29T05:17:53;100642.03;;;23.90;61.57
40612;BME280;26317;44.894;20.286;2022-07-29T05:20:22;100641.81;;;23.99;61.63
40612;BME280;26317;44.894;20.286;2022-07-29T05:22:57;100641.09;;;24.02;62.31
40612;BME280;26317;44.894;20.286;2022-07-29T05:25:27;100647.53;;;24.09;62.67
40612;BME280;26317;44.894;20.286;2022-07-29T05:27:56;100652.22;;;24.24;62.74
40612;BME280;26317;44.894;20.286;2022-07-29T05:30:25;100636.09;;;24.23;62.51
40612;BME280;26317;44.894;20.286;2022-07-29T05:32:55;100641.72;;;24.30;61.92
40612;BME280;26317;44.894;20.286;2022-07-29T05:35:24;100657.28;;;24.42;61.45
40612;BME280;26317;44.894;20.286;2022-07-29T05:37:53;100651.13;;;24.48;61.36
40612;BME280;26317;44.894;20.286;2022-07-29T05:40:24;100607.91;;;24.22;61.24
40612;BME280;26317;44.894;20.286;2022-07-29T05:42:53;100630.19;;;24.40;60.89
40612;BME280;26317;44.894;20.286;2022-07-29T05:45:22;100658.56;;;24.67;60.94
40612;BME280;26317;44.894;20.286;2022-07-29T05:47:53;100659.91;;;24.77;60.62
40612;BME280;26317;44.894;20.286;2022-07-29T05:50:22;100663.44;;;24.77;60.25
40612;BME280;26317;44.894;20.286;2022-07-29T05:52:51;100656.28;;;24.72;60.73
40612;BME280;26317;44.894;20.286;2022-07-29T05:55:20;100638.25;;;24.71;60.70
40612;BME280;26317;44.894;20.286;2022-07-29T05:57:51;100650.22;;;24.83;60.69
40612;BME280;26317;44.894;20.286;2022-07-29T06:00:20;100665.53;;;25.03;60.59
40612;BME280;26317;44.894;20.286;2022-07-29T06:02:49;100658.16;;;25.07;60.83
40612;BME280;26317;44.894;20.286;2022-07-29T06:05:18;100665.34;;;25.15;60.35
40612;BME280;26317;44.894;20.286;2022-07-29T06:07:47;100662.31;;;25.20;60.64
40612;BME280;26317;44.894;20.286;2022-07-29T06:10:16;100666.31;;;25.26;60.08
40612;BME280;26317;44.894;20.286;2022-07-29T06:12:45;100641.84;;;25.17;59.68
40612;BME280;26317;44.894;20.286;2022-07-29T06:15:17;100663.47;;;25.42;60.02
40612;BME280;26317;44.894;20.286;2022-07-29T06:17:46;100652.94;;;25.47;59.79
40612;BME280;26317;44.894;20.286;2022-07-29T06:20:15;100649.56;;;25.54;59.16
40612;BME280;26317;44.894;20.286;2022-07-29T06:22:44;100641.44;;;25.61;59.64
40612;BME280;26317;44.894;20.286;2022-07-29T06:25:13;100638.91;;;25.75;58.95
40612;BME280;26317;44.894;20.286;2022-07-29T06:27:42;100645.59;;;25.78;59.56
40612;BME280;26317;44.894;20.286;2022-07-29T06:30:12;100645.28;;;25.83;59.09
40612;BME280;26317;44.894;20.286;2022-07-29T06:32:49;100629.59;;;25.83;60.04
40612;BME280;26317;44.894;20.286;2022-07-29T06:35:21;100649.44;;;25.99;59.63
40612;BME280;26317;44.894;20.286;2022-07-29T06:37:50;100655.91;;;26.14;58.30
40612;BME280;26317;44.894;20.286;2022-07-29T06:40:20;100652.06;;;26.19;57.38
40612;BME280;26317;44.894;20.286;2022-07-29T06:43:01;100655.31;;;26.24;56.56
40612;BME280;26317;44.894;20.286;2022-07-29T06:45:30;100623.84;;;26.22;56.40
40612;BME280;26317;44.894;20.286;2022-07-29T06:48:05;100649.88;;;26.31;58.23
40612;BME280;26317;44.894;20.286;2022-07-29T06:50:35;100656.41;;;26.49;57.53
40612;BME280;26317;44.894;20.286;2022-07-29T06:53:04;100648.69;;;26.62;56.42
40612;BME280;26317;44.894;20.286;2022-07-29T06:55:33;100648.72;;;26.66;55.49
40612;BME280;26317;44.894;20.286;2022-07-29T06:58:02;100636.13;;;26.65;54.61
40612;BME280;26317;44.894;20.286;2022-07-29T07:00:32;100645.72;;;26.78;55.04
40612;BME280;26317;44.894;20.286;2022-07-29T07:03:04;100647.84;;;26.88;53.98
40612;BME280;26317;44.894;20.286;2022-07-29T07:05:33;100637.28;;;26.97;53.13
40612;BME280;26317;44.894;20.286;2022-07-29T07:08:10;100659.88;;;27.13;53.20
40612;BME280;26317;44.894;20.286;2022-07-29T07:10:39;100655.22;;;27.21;53.76
40612;BME280;26317;44.894;20.286;2022-07-29T07:13:08;100655.66;;;27.26;53.76
40612;BME280;26317;44.894;20.286;2022-07-29T07:15:37;100651.81;;;27.34;52.90
40612;BME280;26317;44.894;20.286;2022-07-29T07:18:10;100616.25;;;27.19;52.46
40612;BME280;26317;44.894;20.286;2022-07-29T07:20:39;100655.13;;;27.51;53.01
40612;BME280;26317;44.894;20.286;2022-07-29T07:23:08;100652.75;;;27.53;53.03
40612;BME280;26317;44.894;20.286;2022-07-29T07:25:37;100622.00;;;27.47;52.81
40612;BME280;26317;44.894;20.286;2022-07-29T07:28:06;100652.09;;;27.73;51.91
40612;BME280;26317;44.894;20.286;2022-07-29T07:30:35;100657.72;;;27.84;52.56
40612;BME280;26317;44.894;20.286;2022-07-29T07:33:10;100608.34;;;27.65;51.39
40612;BME280;26317;44.894;20.286;2022-07-29T07:35:41;100640.03;;;27.92;51.71
40612;BME280;26317;44.894;20.286;2022-07-29T07:38:10;100611.19;;;27.79;50.26
40612;BME280;26317;44.894;20.286;2022-07-29T07:40:40;100640.03;;;27.96;50.62
40612;BME280;26317;44.894;20.286;2022-07-29T07:43:12;100581.13;;;27.56;50.26
40612;BME280;26317;44.894;20.286;2022-07-29T07:45:41;100663.00;;;28.10;49.26
40612;BME280;26317;44.894;20.286;2022-07-29T07:48:15;100584.75;;;27.67;49.65
40612;BME280;26317;44.894;20.286;2022-07-29T07:50:47;100654.28;;;28.08;49.55
40612;BME280;26317;44.894;20.286;2022-07-29T07:53:17;100598.22;;;27.79;50.13
40612;BME280;26317;44.894;20.286;2022-07-29T07:55:48;100609.31;;;27.97;49.83
40612;BME280;26317;44.894;20.286;2022-07-29T07:58:18;100629.91;;;28.14;49.83
40612;BME280;26317;44.894;20.286;2022-07-29T08:00:49;100658.81;;;28.41;49.31
40612;BME280;26317;44.894;20.286;2022-07-29T08:03:20;100626.06;;;28.32;48.94
40612;BME280;26317;44.894;20.286;2022-07-29T08:05:49;100639.13;;;28.43;48.78
40612;BME280;26317;44.894;20.286;2022-07-29T08:08:19;100649.38;;;28.53;49.16
40612;BME280;26317;44.894;20.286;2022-07-29T08:10:49;100603.97;;;28.32;48.17
40612;BME280;26317;44.894;20.286;2022-07-29T08:13:23;100633.63;;;28.50;48.30
40612;BME280;26317;44.894;20.286;2022-07-29T08:15:54;100653.38;;;28.66;48.02
40612;BME280;26317;44.894;20.286;2022-07-29T08:18:40;100649.47;;;28.77;47.42
40612;BME280;26317;44.894;20.286;2022-07-29T08:21:10;100634.84;;;28.63;48.13
40612;BME280;26317;44.894;20.286;2022-07-29T08:23:38;100662.50;;;28.77;48.56
40612;BME280;26317;44.894;20.286;2022-07-29T08:26:12;100656.22;;;28.87;48.36
40612;BME280;26317;44.894;20.286;2022-07-29T08:28:42;100653.88;;;29.03;48.48
40612;BME280;26317;44.894;20.286;2022-07-29T08:31:14;100629.41;;;28.98;48.40
40612;BME280;26317;44.894;20.286;2022-07-29T08:33:46;100644.81;;;29.27;47.80
40612;BME280;26317;44.894;20.286;2022-07-29T08:36:15;100650.38;;;29.45;46.94
40612;BME280;26317;44.894;20.286;2022-07-29T08:38:46;100650.75;;;29.58;48.11
40612;BME280;26317;44.894;20.286;2022-07-29T08:41:15;100627.84;;;29.54;46.99
40612;BME280;26317;44.894;20.286;2022-07-29T08:43:45;100621.88;;;29.73;46.01
40612;BME280;26317;44.894;20.286;2022-07-29T08:46:14;100640.03;;;30.02;45.16
40612;BME280;26317;44.894;20.286;2022-07-29T08:48:47;100643.22;;;29.97;45.58
40612;BME280;26317;44.894;20.286;2022-07-29T08:51:20;100604.91;;;29.89;45.08
40612;BME280;26317;44.894;20.286;2022-07-29T08:53:51;100645.47;;;30.24;44.34
40612;BME280;26317;44.894;20.286;2022-07-29T08:56:20;100641.91;;;30.30;44.35
40612;BME280;26317;44.894;20.286;2022-07-29T08:58:51;100638.34;;;30.33;44.57
40612;BME280;26317;44.894;20.286;2022-07-29T09:01:25;100614.66;;;30.22;43.25
40612;BME280;26317;44.894;20.286;2022-07-29T09:03:59;100641.06;;;30.40;43.74
40612;BME280;26317;44.894;20.286;2022-07-29T09:06:32;100645.41;;;30.41;43.57
40612;BME280;26317;44.894;20.286;2022-07-29T09:09:03;100636.34;;;30.34;42.79
40612;BME280;26317;44.894;20.286;2022-07-29T09:11:32;100619.00;;;30.23;44.44
40612;BME280;26317;44.894;20.286;2022-07-29T09:14:01;100639.50;;;30.36;45.50
40612;BME280;26317;44.894;20.286;2022-07-29T09:16:48;100632.78;;;30.37;42.56
40612;BME280;26317;44.894;20.286;2022-07-29T09:19:26;100627.25;;;30.37;43.56
40612;BME280;26317;44.894;20.286;2022-07-29T09:21:56;100637.50;;;30.47;43.55
40612;BME280;26317;44.894;20.286;2022-07-29T09:24:24;100635.94;;;30.46;43.30
40612;BME280;26317;44.894;20.286;2022-07-29T09:26:53;100634.75;;;30.47;44.78
40612;BME280;26317;44.894;20.286;2022-07-29T09:29:23;100639.81;;;30.63;45.27
40612;BME280;26317;44.894;20.286;2022-07-29T09:31:54;100631.88;;;30.68;43.60
40612;BME280;26317;44.894;20.286;2022-07-29T09:34:28;100634.63;;;30.65;43.83
40612;BME280;26317;44.894;20.286;2022-07-29T09:36:57;100630.34;;;30.60;44.33
40612;BME280;26317;44.894;20.286;2022-07-29T09:39:29;100629.53;;;30.59;44.63
40612;BME280;26317;44.894;20.286;2022-07-29T09:42:01;100625.56;;;30.57;44.37
40612;BME280;26317;44.894;20.286;2022-07-29T09:44:43;100627.97;;;30.55;44.80
40612;BME280;26317;44.894;20.286;2022-07-29T09:47:14;100612.25;;;30.34;44.07
40612;BME280;26317;44.894;20.286;2022-07-29T09:49:57;100592.44;;;30.36;43.30
40612;BME280;26317;44.894;20.286;2022-07-29T09:52:27;100623.16;;;30.66;44.08
40612;BME280;26317;44.894;20.286;2022-07-29T09:55:04;100612.91;;;30.63;44.10
40612;BME280;26317;44.894;20.286;2022-07-29T09:57:32;100619.16;;;30.74;44.22
40612;BME280;26317;44.894;20.286;2022-07-29T10:00:05;100612.81;;;30.74;43.68
40612;BME280;26317;44.894;20.286;2022-07-29T10:02:41;100614.38;;;30.78;43.89
40612;BME280;26317;44.894;20.286;2022-07-29T10:05:23;100602.06;;;30.83;44.18
40612;BME280;26317;44.894;20.286;2022-07-29T10:07:55;100590.13;;;30.96;43.86
40612;BME280;26317;44.894;20.286;2022-07-29T10:10:26;100601.78;;;31.25;43.51
40612;BME280;26317;44.894;20.286;2022-07-29T10:12:58;100580.38;;;31.26;42.90
40612;BME280;26317;44.894;20.286;2022-07-29T10:15:30;100594.84;;;31.47;42.70
40612;BME280;26317;44.894;20.286;2022-07-29T10:17:59;100592.28;;;31.67;42.92
40612;BME280;26317;44.894;20.286;2022-07-29T10:20:32;100592.91;;;31.82;42.31
40612;BME280;26317;44.894;20.286;2022-07-29T10:23:01;100584.88;;;31.91;41.25
40612;BME280;26317;44.894;20.286;2022-07-29T10:25:30;100568.66;;;31.86;40.82
40612;BME280;26317;44.894;20.286;2022-07-29T10:27:59;100579.94;;;32.06;41.57
40612;BME280;26317;44.894;20.286;2022-07-29T10:30:28;100582.19;;;32.18;40.65
40612;BME280;26317;44.894;20.286;2022-07-29T10:33:17;100580.47;;;32.27;41.22
40612;BME280;26317;44.894;20.286;2022-07-29T10:36:14;100574.88;;;32.31;40.88
40612;BME280;26317;44.894;20.286;2022-07-29T10:38:55;100570.09;;;32.31;39.89
40612;BME280;26317;44.894;20.286;2022-07-29T10:41:48;100557.81;;;31.99;41.30
40612;BME280;26317;44.894;20.286;2022-07-29T10:44:22;100561.38;;;31.99;41.92
40612;BME280;26317;44.894;20.286;2022-07-29T10:46:53;100565.53;;;32.18;42.88
40612;BME280;26317;44.894;20.286;2022-07-29T10:49:25;100558.69;;;32.26;42.30
40612;BME280;26317;44.894;20.286;2022-07-29T10:52:10;100557.91;;;32.25;40.65
40612;BME280;26317;44.894;20.286;2022-07-29T10:54:49;100561.00;;;32.31;40.07
40612;BME280;26317;44.894;20.286;2022-07-29T10:57:24;100547.00;;;32.38;40.89
40612;BME280;26317;44.894;20.286;2022-07-29T11:00:26;100546.06;;;32.48;41.17
40612;BME280;26317;44.894;20.286;2022-07-29T11:02:55;100542.25;;;32.65;40.59
40612;BME280;26317;44.894;20.286;2022-07-29T11:05:25;100547.19;;;32.81;38.92
40612;BME280;26317;44.894;20.286;2022-07-29T11:08:25;100540.84;;;32.80;40.54
40612;BME280;26317;44.894;20.286;2022-07-29T11:13:47;100530.19;;;32.75;40.66
40612;BME280;26317;44.894;20.286;2022-07-29T11:16:21;100538.25;;;32.93;40.42
40612;BME280;26317;44.894;20.286;2022-07-29T11:19:21;100527.25;;;33.09;38.80
40612;BME280;26317;44.894;20.286;2022-07-29T11:21:50;100523.81;;;33.25;38.95
40612;BME280;26317;44.894;20.286;2022-07-29T11:24:24;100516.88;;;33.13;39.33
40612;BME280;26317;44.894;20.286;2022-07-29T11:27:13;100526.22;;;33.00;39.20
40612;BME280;26317;44.894;20.286;2022-07-29T11:29:54;100497.88;;;33.08;39.54
40612;BME280;26317;44.894;20.286;2022-07-29T11:32:36;100502.03;;;33.20;39.06
40612;BME280;26317;44.894;20.286;2022-07-29T11:35:15;100497.09;;;33.31;38.04
40612;BME280;26317;44.894;20.286;2022-07-29T11:37:46;100511.97;;;33.41;38.40
40612;BME280;26317;44.894;20.286;2022-07-29T11:40:20;100507.78;;;33.52;38.42
40612;BME280;26317;44.894;20.286;2022-07-29T11:42:49;100497.66;;;33.62;38.07
40612;BME280;26317;44.894;20.286;2022-07-29T11:45:23;100504.88;;;33.79;37.75
40612;BME280;26317;44.894;20.286;2022-07-29T11:47:55;100506.91;;;33.95;37.27
40612;BME280;26317;44.894;20.286;2022-07-29T11:50:31;100515.97;;;34.18;37.12
40612;BME280;26317;44.894;20.286;2022-07-29T11:53:01;100513.31;;;34.31;36.88
40612;BME280;26317;44.894;20.286;2022-07-29T11:55:33;100516.91;;;34.48;35.32
40612;BME280;26317;44.894;20.286;2022-07-29T11:58:07;100505.84;;;34.60;35.13
40612;BME280;26317;44.894;20.286;2022-07-29T12:00:38;100507.25;;;34.85;34.21
40612;BME280;26317;44.894;20.286;2022-07-29T12:03:09;100510.00;;;35.01;33.88
40612;BME280;26317;44.894;20.286;2022-07-29T12:05:41;100498.06;;;35.00;34.49
40612;BME280;26317;44.894;20.286;2022-07-29T12:08:13;100483.06;;;35.11;33.65
40612;BME280;26317;44.894;20.286;2022-07-29T12:10:49;100501.38;;;35.28;33.96
40612;BME280;26317;44.894;20.286;2022-07-29T12:13:20;100495.81;;;35.40;34.68
40612;BME280;26317;44.894;20.286;2022-07-29T12:15:56;100490.72;;;35.51;33.96
40612;BME280;26317;44.894;20.286;2022-07-29T12:18:28;100479.56;;;35.51;33.72
40612;BME280;26317;44.894;20.286;2022-07-29T12:20:59;100502.53;;;35.72;33.88
40612;BME280;26317;44.894;20.286;2022-07-29T12:23:29;100485.00;;;35.71;33.83
40612;BME280;26317;44.894;20.286;2022-07-29T12:26:04;100495.50;;;35.80;32.70
40612;BME280;26317;44.894;20.286;2022-07-29T12:28:37;100494.06;;;35.88;32.85
40612;BME280;26317;44.894;20.286;2022-07-29T12:31:13;100489.16;;;35.92;32.75
40612;BME280;26317;44.894;20.286;2022-07-29T12:33:43;100485.81;;;35.97;32.15
40612;BME280;26317;44.894;20.286;2022-07-29T12:36:21;100480.34;;;36.06;32.47
40612;BME280;26317;44.894;20.286;2022-07-29T12:38:51;100476.91;;;36.15;32.97
40612;BME280;26317;44.894;20.286;2022-07-29T12:41:29;100481.50;;;36.21;32.76
40612;BME280;26317;44.894;20.286;2022-07-29T12:43:59;100484.94;;;36.25;32.41
40612;BME280;26317;44.894;20.286;2022-07-29T12:46:29;100483.84;;;36.35;31.94
40612;BME280;26317;44.894;20.286;2022-07-29T12:49:02;100483.16;;;36.44;31.71
40612;BME280;26317;44.894;20.286;2022-07-29T12:51:33;100480.69;;;36.59;30.80
40612;BME280;26317;44.894;20.286;2022-07-29T12:54:05;100452.63;;;36.37;31.03
40612;BME280;26317;44.894;20.286;2022-07-29T12:56:43;100450.75;;;36.21;31.44
40612;BME280;26317;44.894;20.286;2022-07-29T12:59:17;100464.16;;;36.39;31.39
40612;BME280;26317;44.894;20.286;2022-07-29T13:01:46;100466.84;;;36.42;31.20
40612;BME280;26317;44.894;20.286;2022-07-29T13:04:27;100448.31;;;36.23;30.74
40612;BME280;26317;44.894;20.286;2022-07-29T13:07:00;100456.03;;;36.19;32.39
40612;BME280;26317;44.894;20.286;2022-07-29T13:09:38;100458.78;;;36.45;32.23
40612;BME280;26317;44.894;20.286;2022-07-29T13:12:12;100463.91;;;36.59;31.30